Time;durP1;ratioP1;P1;durP2;ratioP2;P2;SDS_P1;SDS_P2;PMS_P1;PMS_P2;Temp;Humidity;BMP_temperature;BMP_pressure;BME280_temperature;BME280_humidity;BME280_pressure;Samples;Min_cycle;Max_cycle;Signal;HPM_P1;HPM_P2
2022/12/05 00:01:30;;;;;;;70.77;32.40;;;2.60;99.90;;;;;;5096370;28;20682;-71
2022/12/05 00:03:58;;;;;;;75.03;33.43;;;2.60;99.90;;;;;;5095936;28;20239;-72
2022/12/05 00:06:26;;;;;;;73.53;34.00;;;2.50;99.90;;;;;;5096198;28;20696;-71
2022/12/05 00:08:52;;;;;;;74.93;34.80;;;2.50;99.90;;;;;;5096285;28;20178;-71
2022/12/05 00:11:21;;;;;;;76.33;34.53;;;2.50;99.90;;;;;;5095881;28;20554;-71
2022/12/05 00:13:48;;;;;;;71.50;33.77;;;2.50;99.90;;;;;;5095472;28;20267;-71
2022/12/05 00:16:17;;;;;;;75.37;32.70;;;2.60;99.90;;;;;;5095093;28;20167;-71
2022/12/05 00:18:43;;;;;;;79.07;33.90;;;2.50;99.90;;;;;;5096014;28;20175;-71
2022/12/05 00:21:19;;;;;;;76.53;32.97;;;2.50;99.90;;;;;;5096109;28;20167;-70
2022/12/05 00:23:45;;;;;;;72.87;33.57;;;2.50;99.90;;;;;;5095859;28;20217;-71
2022/12/05 00:26:11;;;;;;;71.07;35.07;;;2.50;99.90;;;;;;5095982;28;20251;-71
2022/12/05 00:28:38;;;;;;;73.83;32.30;;;2.60;99.90;;;;;;5095733;28;20206;-71
2022/12/05 00:31:06;;;;;;;71.13;32.50;;;2.60;99.90;;;;;;5095455;28;20292;-71
2022/12/05 00:33:32;;;;;;;71.77;32.60;;;2.60;99.90;;;;;;5095625;28;20635;-70
2022/12/05 00:36:15;;;;;;;70.60;33.30;;;2.60;99.90;;;;;;5095573;28;20168;-71
2022/12/05 00:38:41;;;;;;;76.47;34.43;;;2.50;99.90;;;;;;5095590;28;20164;-70
2022/12/05 00:41:12;;;;;;;70.53;32.77;;;2.50;99.90;;;;;;5095521;28;20171;-70
2022/12/05 00:43:38;;;;;;;75.93;32.50;;;2.50;99.90;;;;;;5095380;28;20215;-70
2022/12/05 00:46:06;;;;;;;77.40;33.17;;;2.60;99.90;;;;;;5094995;28;20168;-70
2022/12/05 00:48:32;;;;;;;73.53;33.83;;;2.60;99.90;;;;;;5095415;28;20175;-69
2022/12/05 00:51:02;;;;;;;77.20;34.20;;;2.60;99.90;;;;;;5094169;28;20172;-70
2022/12/05 00:53:28;;;;;;;65.70;32.13;;;2.60;99.90;;;;;;5095366;28;20167;-71
2022/12/05 00:55:54;;;;;;;77.30;33.27;;;2.60;99.90;;;;;;5095100;28;20246;-70
2022/12/05 00:58:19;;;;;;;77.90;32.83;;;2.60;99.90;;;;;;5095412;28;20613;-71
2022/12/05 01:00:45;;;;;;;72.43;32.23;;;2.60;99.90;;;;;;5094856;28;20221;-70
2022/12/05 01:03:10;;;;;;;67.47;31.90;;;2.70;99.90;;;;;;5095103;28;20726;-71
2022/12/05 01:05:36;;;;;;;62.43;30.93;;;2.60;99.90;;;;;;5095005;28;20198;-71
2022/12/05 01:08:02;;;;;;;66.00;30.73;;;2.60;99.90;;;;;;5094978;28;20202;-71
2022/12/05 01:10:27;;;;;;;68.63;30.90;;;2.70;99.90;;;;;;5094593;28;20303;-70
2022/12/05 01:12:53;;;;;;;70.10;29.57;;;2.60;99.90;;;;;;5094184;28;20177;-70
2022/12/05 01:15:19;;;;;;;66.73;31.07;;;2.60;99.90;;;;;;5094654;28;20194;-71
2022/12/05 01:17:45;;;;;;;76.77;32.93;;;2.70;99.90;;;;;;5094720;28;20175;-71
2022/12/05 01:20:10;;;;;;;62.53;29.83;;;2.70;99.90;;;;;;5094842;28;20559;-72
2022/12/05 01:22:36;;;;;;;66.07;30.57;;;2.80;99.90;;;;;;5094575;28;20658;-72
2022/12/05 01:25:02;;;;;;;71.13;31.33;;;2.80;99.90;;;;;;5094539;28;20176;-70
2022/12/05 01:27:28;;;;;;;71.10;32.30;;;2.80;99.90;;;;;;5094696;28;20175;-71
2022/12/05 01:29:53;;;;;;;65.87;30.53;;;2.70;99.90;;;;;;5094172;28;20164;-71
2022/12/05 01:32:19;;;;;;;63.17;31.20;;;2.80;99.90;;;;;;5094540;28;20251;-71
2022/12/05 01:34:45;;;;;;;63.23;30.13;;;2.80;99.90;;;;;;5094530;28;20171;-72
2022/12/05 01:37:10;;;;;;;64.87;30.43;;;2.80;99.90;;;;;;5094551;28;20175;-71
2022/12/05 01:39:36;;;;;;;66.70;30.80;;;2.80;99.90;;;;;;5093087;28;20172;-71
2022/12/05 01:42:04;;;;;;;63.80;30.63;;;2.80;99.90;;;;;;5094461;28;20160;-71
2022/12/05 01:44:30;;;;;;;65.33;30.13;;;2.80;99.90;;;;;;5093774;28;20184;-71
2022/12/05 01:46:56;;;;;;;67.83;31.43;;;2.80;99.90;;;;;;5094562;28;20164;-71
2022/12/05 01:49:32;;;;;;;73.67;31.43;;;2.70;99.90;;;;;;5076150;28;20183;-71
2022/12/05 01:52:14;;;;;;;64.50;29.87;;;2.80;99.90;;;;;;5094214;28;20172;-71
2022/12/05 01:54:40;;;;;;;73.77;31.20;;;2.80;99.90;;;;;;5094072;28;20635;-72
2022/12/05 01:57:10;;;;;;;65.73;30.77;;;2.70;99.90;;;;;;5094108;28;20172;-73
2022/12/05 01:59:40;;;;;;;68.47;32.20;;;2.80;99.90;;;;;;5093794;28;20175;-71
2022/12/05 02:02:07;;;;;;;66.87;30.57;;;2.70;99.90;;;;;;5094132;28;20278;-71
2022/12/05 02:04:47;;;;;;;65.20;28.47;;;2.70;99.90;;;;;;5093813;28;20168;-72
2022/12/05 02:07:12;;;;;;;65.13;31.53;;;2.70;99.90;;;;;;5093879;28;20170;-71
2022/12/05 02:09:38;;;;;;;65.37;30.53;;;2.80;99.90;;;;;;5093936;28;20176;-71
2022/12/05 02:12:04;;;;;;;69.70;32.13;;;2.80;99.90;;;;;;5093536;28;20203;-70
2022/12/05 02:14:48;;;;;;;65.53;29.60;;;2.90;99.90;;;;;;5093333;28;20176;-71
2022/12/05 02:17:34;;;;;;;68.90;32.13;;;2.90;99.90;;;;;;5093704;28;20195;-71
2022/12/05 02:20:50;;;;;;;70.13;30.60;;;2.80;99.90;;;;;;5093652;28;20195;-70
2022/12/05 02:23:16;;;;;;;69.37;32.33;;;2.80;99.90;;;;;;5089214;28;20219;-70
2022/12/05 02:26:32;;;;;;;69.83;32.13;;;2.90;99.90;;;;;;5093591;28;20174;-71
2022/12/05 02:29:07;;;;;;;63.40;29.23;;;2.80;99.90;;;;;;5092198;28;20701;-71
2022/12/05 02:31:36;;;;;;;73.93;32.47;;;2.80;99.90;;;;;;5093584;28;20190;-71
2022/12/05 02:34:09;;;;;;;67.90;31.33;;;2.80;99.90;;;;;;5093666;28;20160;-71
2022/12/05 02:37:05;;;;;;;78.17;32.73;;;2.80;99.90;;;;;;5075214;28;20205;-71
2022/12/05 02:40:01;;;;;;;72.47;30.40;;;2.90;99.90;;;;;;5093453;28;20192;-71
2022/12/05 02:42:37;;;;;;;73.10;27.80;;;2.90;99.90;;;;;;5093062;28;20663;-71
2022/12/05 02:45:08;;;;;;;74.67;31.17;;;2.90;99.90;;;;;;5093469;28;20565;-70
2022/12/05 02:47:37;;;;;;;73.00;32.57;;;2.80;99.90;;;;;;5093524;28;20183;-70
2022/12/05 02:50:05;;;;;;;75.17;34.53;;;2.80;99.90;;;;;;5093319;28;20237;-70
2022/12/05 02:52:33;;;;;;;68.00;31.43;;;2.80;99.90;;;;;;5093100;28;20260;-71
2022/12/05 02:54:59;;;;;;;71.13;29.03;;;2.80;99.90;;;;;;5075178;28;20263;-71
2022/12/05 02:57:25;;;;;;;74.30;33.07;;;2.80;99.90;;;;;;5092693;28;20203;-70
2022/12/05 02:59:51;;;;;;;75.87;31.50;;;2.70;99.90;;;;;;5093047;28;20229;-71
2022/12/05 03:02:26;;;;;;;80.73;34.67;;;2.80;99.90;;;;;;5093087;28;20674;-71
2022/12/05 03:04:56;;;;;;;73.00;33.30;;;2.80;99.90;;;;;;5093012;28;20167;-70
2022/12/05 03:07:25;;;;;;;66.13;31.63;;;2.80;99.90;;;;;;5093041;28;20164;-70
2022/12/05 03:09:58;;;;;;;68.27;31.40;;;2.90;99.90;;;;;;5092839;28;20684;-71
2022/12/05 03:12:28;;;;;;;74.10;34.47;;;2.80;99.90;;;;;;5092708;28;20217;-70
2022/12/05 03:15:07;;;;;;;77.60;33.13;;;2.80;99.90;;;;;;5092882;28;20178;-69
2022/12/05 03:17:41;;;;;;;77.10;32.70;;;2.80;99.90;;;;;;5092825;28;20183;-71
2022/12/05 03:20:19;;;;;;;73.67;33.03;;;2.90;99.90;;;;;;5075199;28;20184;-70
2022/12/05 03:23:09;;;;;;;76.43;33.20;;;2.80;99.90;;;;;;5093030;28;20261;-70
2022/12/05 03:25:48;;;;;;;69.53;33.27;;;2.80;99.90;;;;;;5092520;28;20168;-70
2022/12/05 03:28:28;;;;;;;73.27;33.03;;;2.90;99.90;;;;;;5092832;28;20167;-71
2022/12/05 03:31:00;;;;;;;76.97;33.80;;;3.00;99.90;;;;;;5092845;28;20190;-69
2022/12/05 03:33:32;;;;;;;74.63;33.20;;;3.00;99.90;;;;;;5092897;28;20176;-70
2022/12/05 03:36:05;;;;;;;71.00;31.53;;;3.00;99.90;;;;;;5092276;28;20651;-71
2022/12/05 03:38:44;;;;;;;73.10;32.67;;;3.00;99.90;;;;;;5074671;28;20666;-69
2022/12/05 03:41:25;;;;;;;75.13;32.63;;;3.10;99.90;;;;;;5074239;28;20168;-70
2022/12/05 03:44:08;;;;;;;68.60;29.57;;;2.90;99.90;;;;;;5092504;28;20208;-70
2022/12/05 03:46:41;;;;;;;71.97;30.83;;;3.00;99.90;;;;;;5074300;28;20210;-70
2022/12/05 03:49:16;;;;;;;77.37;32.87;;;3.00;99.90;;;;;;5094476;28;20168;-70
2022/12/05 03:51:54;;;;;;;73.67;32.93;;;3.10;99.90;;;;;;5096587;28;20168;-70
2022/12/05 03:54:35;;;;;;;69.70;32.00;;;3.20;99.90;;;;;;5095869;28;20168;-71
2022/12/05 03:57:36;;;;;;;69.33;30.70;;;3.20;99.90;;;;;;5094820;28;20258;-70
2022/12/05 04:00:17;;;;;;;66.23;31.50;;;3.30;99.90;;;;;;5096174;28;20285;-70
2022/12/05 04:03:01;;;;;;;60.27;30.13;;;3.30;99.90;;;;;;5096209;28;20211;-71
2022/12/05 04:05:49;;;;;;;67.33;30.97;;;3.30;99.90;;;;;;5096131;28;20190;-70
2022/12/05 04:08:57;;;;;;;61.83;30.17;;;3.20;99.90;;;;;;5096062;28;20246;-70
2022/12/05 04:11:26;;;;;;;64.23;30.37;;;3.10;99.90;;;;;;5085147;28;20259;-71
2022/12/05 04:14:05;;;;;;;68.83;30.40;;;3.00;99.90;;;;;;5096050;28;20535;-71
2022/12/05 04:17:02;;;;;;;61.67;29.80;;;3.10;99.90;;;;;;5096022;28;20194;-70
2022/12/05 04:22:33;;;;;;;59.57;29.23;;;3.20;99.90;;;;;;5096084;28;20743;-71
2022/12/05 04:27:57;;;;;;;57.17;27.30;;;3.20;99.90;;;;;;5096082;28;20187;-71
2022/12/05 04:30:26;;;;;;;54.43;27.77;;;3.30;99.90;;;;;;5077333;28;20259;-70
2022/12/05 04:33:05;;;;;;;51.97;27.67;;;3.30;99.90;;;;;;5095559;28;20241;-70
2022/12/05 04:35:45;;;;;;;50.10;25.17;;;3.30;99.90;;;;;;5078082;28;20175;-70
2022/12/05 04:38:24;;;;;;;51.00;25.30;;;3.30;99.90;;;;;;5095230;28;20212;-70
2022/12/05 04:41:03;;;;;;;55.10;26.13;;;3.20;99.90;;;;;;5095287;28;20171;-71
2022/12/05 04:43:33;;;;;;;51.40;26.13;;;3.10;99.90;;;;;;5094859;28;20215;-71
2022/12/05 04:46:03;;;;;;;50.33;26.30;;;2.90;99.90;;;;;;5094877;28;20168;-71
2022/12/05 04:48:30;;;;;;;53.50;26.63;;;2.80;99.90;;;;;;5095298;28;20193;-70
2022/12/05 04:50:57;;;;;;;60.60;27.60;;;2.90;99.90;;;;;;5076649;28;20534;-71
2022/12/05 04:53:28;;;;;;;51.33;27.57;;;3.10;99.90;;;;;;5094197;28;20180;-70
2022/12/05 04:55:57;;;;;;;52.53;26.93;;;3.10;99.90;;;;;;5094936;28;20526;-70
2022/12/05 04:58:25;;;;;;;59.20;29.37;;;3.00;99.90;;;;;;5094971;28;20171;-70
2022/12/05 05:01:05;;;;;;;56.07;28.07;;;3.00;99.90;;;;;;5094522;28;20168;-70
2022/12/05 05:03:55;;;;;;;55.77;27.53;;;3.20;99.90;;;;;;5094797;28;20227;-71
2022/12/05 05:06:21;;;;;;;56.87;28.97;;;3.20;99.90;;;;;;5094434;28;20253;-71
2022/12/05 05:08:53;;;;;;;54.50;27.63;;;3.30;99.90;;;;;;5093516;28;20616;-70
2022/12/05 05:11:23;;;;;;;57.93;27.93;;;3.30;99.90;;;;;;5093988;28;20590;-70
2022/12/05 05:13:49;;;;;;;55.83;29.23;;;3.30;99.90;;;;;;5095034;28;20297;-71
2022/12/05 05:16:38;;;;;;;54.80;27.47;;;3.30;99.90;;;;;;5094470;28;20550;-70
2022/12/05 05:19:04;;;;;;;53.93;28.17;;;3.20;99.90;;;;;;5094710;28;20250;-70
2022/12/05 05:21:33;;;;;;;61.23;30.83;;;3.10;99.90;;;;;;5093923;28;20218;-70
2022/12/05 05:24:00;;;;;;;64.60;30.47;;;3.10;99.90;;;;;;5094922;28;20222;-72
2022/12/05 05:26:27;;;;;;;60.33;28.17;;;3.00;99.90;;;;;;5094128;28;20237;-71
2022/12/05 05:28:53;;;;;;;61.83;31.30;;;3.00;99.90;;;;;;5094201;28;20182;-70
2022/12/05 05:31:19;;;;;;;61.20;29.67;;;2.90;99.90;;;;;;5094209;28;20250;-70
2022/12/05 05:33:49;;;;;;;68.33;32.37;;;3.00;99.90;;;;;;5094778;28;20279;-71
2022/12/05 05:36:16;;;;;;;68.37;32.87;;;3.00;99.90;;;;;;5093401;28;20218;-70
2022/12/05 05:38:47;;;;;;;72.90;33.23;;;3.10;99.90;;;;;;5094350;28;20636;-70
2022/12/05 05:41:16;;;;;;;62.37;32.07;;;3.10;99.90;;;;;;5093970;28;20251;-71
2022/12/05 05:43:42;;;;;;;69.57;31.87;;;3.10;99.90;;;;;;5093583;28;20204;-69
2022/12/05 05:46:09;;;;;;;70.13;32.73;;;3.10;99.90;;;;;;5093613;28;20209;-71
2022/12/05 05:48:35;;;;;;;59.87;30.33;;;3.10;99.90;;;;;;5093896;28;20651;-71
2022/12/05 05:51:02;;;;;;;66.33;30.63;;;3.10;99.90;;;;;;5093768;28;20236;-71
2022/12/05 05:53:27;;;;;;;62.30;31.77;;;3.10;99.90;;;;;;5093034;28;20182;-70
2022/12/05 05:55:53;;;;;;;64.10;30.67;;;3.10;99.90;;;;;;5093161;28;20541;-70
2022/12/05 05:58:19;;;;;;;62.10;32.33;;;3.00;99.90;;;;;;5093251;28;20194;-72
2022/12/05 06:00:45;;;;;;;63.00;31.20;;;3.00;99.90;;;;;;5093427;28;20176;-71
2022/12/05 06:03:10;;;;;;;67.40;31.07;;;3.10;99.90;;;;;;5092249;28;20215;-70
2022/12/05 06:05:36;;;;;;;69.57;31.80;;;3.10;99.90;;;;;;5092722;28;20496;-70
2022/12/05 06:08:02;;;;;;;59.10;29.70;;;3.10;99.90;;;;;;5091529;28;20263;-71
2022/12/05 06:10:29;;;;;;;65.97;31.00;;;3.10;99.90;;;;;;5092910;28;20264;-70
2022/12/05 06:12:55;;;;;;;64.50;30.37;;;3.10;99.90;;;;;;5092421;28;20182;-71
2022/12/05 06:15:20;;;;;;;57.10;29.80;;;3.10;99.90;;;;;;5092880;28;20191;-69
2022/12/05 06:17:46;;;;;;;62.97;31.37;;;3.00;99.90;;;;;;5092603;28;20207;-71
2022/12/05 06:20:12;;;;;;;61.40;30.80;;;3.10;99.90;;;;;;5092281;28;20179;-71
2022/12/05 06:22:37;;;;;;;62.90;29.60;;;3.10;99.90;;;;;;5093183;28;20705;-71
2022/12/05 06:25:04;;;;;;;61.90;31.23;;;3.00;99.90;;;;;;5092386;28;20200;-72
2022/12/05 06:27:32;;;;;;;65.80;30.63;;;3.10;99.90;;;;;;5091517;28;20286;-70
2022/12/05 06:29:58;;;;;;;63.67;30.37;;;3.20;99.90;;;;;;5092040;28;20172;-71
2022/12/05 06:32:24;;;;;;;69.67;30.93;;;3.20;99.90;;;;;;5092517;28;20658;-70
2022/12/05 06:34:49;;;;;;;67.63;32.23;;;3.10;99.90;;;;;;5091851;28;20164;-71
2022/12/05 06:37:15;;;;;;;64.97;31.23;;;3.10;99.90;;;;;;5092070;28;20220;-71
2022/12/05 06:39:41;;;;;;;62.67;30.33;;;3.20;99.90;;;;;;5092343;28;20642;-71
2022/12/05 06:42:06;;;;;;;64.40;29.50;;;3.20;99.90;;;;;;5092087;28;20168;-71
2022/12/05 06:44:32;;;;;;;65.07;30.87;;;3.10;99.90;;;;;;5092301;28;20241;-71
2022/12/05 06:46:58;;;;;;;65.53;31.40;;;3.10;99.90;;;;;;5092674;28;20168;-69
2022/12/05 06:49:25;;;;;;;63.13;29.30;;;3.30;99.90;;;;;;5092167;28;20251;-71
2022/12/05 06:51:52;;;;;;;62.27;30.03;;;3.20;99.90;;;;;;5091381;28;20233;-71
2022/12/05 06:54:18;;;;;;;64.97;30.13;;;3.20;99.90;;;;;;5092011;28;20623;-71
2022/12/05 06:56:43;;;;;;;65.37;30.23;;;3.20;99.90;;;;;;5092257;28;20229;-71
2022/12/05 06:59:09;;;;;;;56.30;29.57;;;3.30;99.90;;;;;;5091644;28;20172;-71
2022/12/05 07:01:39;;;;;;;62.77;31.40;;;3.20;99.90;;;;;;5091707;28;20176;-72
2022/12/05 07:04:11;;;;;;;56.93;28.93;;;3.20;99.90;;;;;;5073647;28;20211;-70
2022/12/05 07:06:37;;;;;;;58.80;30.97;;;3.20;99.90;;;;;;5091103;28;20175;-71
2022/12/05 07:09:04;;;;;;;69.90;32.27;;;3.20;99.90;;;;;;5091956;28;20168;-70
2022/12/05 07:11:30;;;;;;;58.83;28.30;;;3.30;99.90;;;;;;5091865;28;20239;-71
2022/12/05 07:13:55;;;;;;;64.30;31.43;;;3.30;99.90;;;;;;5091160;28;20620;-70
2022/12/05 07:16:22;;;;;;;63.67;30.07;;;3.30;99.90;;;;;;5091898;28;20171;-71
2022/12/05 07:18:47;;;;;;;59.67;30.57;;;3.30;99.90;;;;;;5091542;28;20273;-71
2022/12/05 07:21:15;;;;;;;63.67;30.83;;;3.20;99.90;;;;;;5090627;28;20195;-72
2022/12/05 07:23:42;;;;;;;62.07;30.00;;;3.20;99.90;;;;;;5092541;28;20264;-70
2022/12/05 07:26:10;;;;;;;66.20;30.30;;;3.30;99.90;;;;;;5093811;28;20266;-70
2022/12/05 07:28:36;;;;;;;63.27;30.07;;;3.40;99.90;;;;;;5095204;28;20521;-72
2022/12/05 07:31:04;;;;;;;61.97;30.77;;;3.40;99.90;;;;;;5094039;28;20175;-71
2022/12/05 07:33:30;;;;;;;61.03;30.33;;;3.40;99.90;;;;;;5094784;28;20617;-70
2022/12/05 07:36:04;;;;;;;66.50;31.30;;;3.40;99.90;;;;;;5094757;28;20176;-70
2022/12/05 07:38:30;;;;;;;64.97;29.87;;;3.50;99.90;;;;;;5077571;28;20677;-72
2022/12/05 07:40:56;;;;;;;63.20;28.17;;;3.40;99.90;;;;;;5094957;28;20178;-72
2022/12/05 07:43:22;;;;;;;73.43;31.20;;;3.40;99.90;;;;;;5095851;28;20250;-71
2022/12/05 07:45:48;;;;;;;63.93;31.80;;;3.30;99.90;;;;;;5093079;28;20612;-71
2022/12/05 07:48:13;;;;;;;70.60;30.77;;;3.30;99.90;;;;;;5090787;28;20205;-70
2022/12/05 07:50:39;;;;;;;66.87;30.53;;;3.30;99.90;;;;;;5095072;28;20647;-71
2022/12/05 07:53:05;;;;;;;72.30;31.33;;;3.30;99.90;;;;;;5093365;28;20179;-70
2022/12/05 07:55:30;;;;;;;66.63;30.93;;;3.30;99.90;;;;;;5094763;28;20206;-71
2022/12/05 07:57:56;;;;;;;59.07;24.40;;;3.30;99.90;;;;;;5094988;28;20172;-70
2022/12/05 08:00:22;;;;;;;68.43;31.70;;;3.20;99.90;;;;;;5094148;28;20592;-72
2022/12/05 08:02:47;;;;;;;61.07;29.23;;;3.30;99.90;;;;;;5094901;28;20207;-72
2022/12/05 08:05:14;;;;;;;64.43;31.47;;;3.30;99.90;;;;;;5093908;28;20168;-70
2022/12/05 08:07:40;;;;;;;65.27;31.50;;;3.30;99.90;;;;;;5094015;28;20265;-70
2022/12/05 08:10:06;;;;;;;61.97;30.53;;;3.40;99.90;;;;;;5092524;28;20657;-71
2022/12/05 08:12:32;;;;;;;59.37;29.40;;;3.50;99.90;;;;;;5093854;28;20172;-71
2022/12/05 08:14:57;;;;;;;63.50;28.90;;;3.40;99.90;;;;;;5093601;28;20218;-70
2022/12/05 08:17:23;;;;;;;57.40;28.80;;;3.50;99.90;;;;;;5093507;28;20619;-70
2022/12/05 08:19:48;;;;;;;55.53;29.20;;;3.50;99.90;;;;;;5093451;28;20270;-71
2022/12/05 08:22:14;;;;;;;59.20;29.50;;;3.50;99.90;;;;;;5093317;28;20251;-71
2022/12/05 08:24:40;;;;;;;57.27;27.00;;;3.40;99.90;;;;;;5093740;28;20171;-69
2022/12/05 08:27:06;;;;;;;55.30;28.23;;;3.50;99.90;;;;;;5094381;28;20532;-70
2022/12/05 08:29:31;;;;;;;55.87;28.00;;;3.50;99.90;;;;;;5094695;28;20615;-69
2022/12/05 08:31:57;;;;;;;53.37;27.60;;;3.50;99.90;;;;;;5094636;28;20200;-71
2022/12/05 08:34:23;;;;;;;54.57;29.13;;;3.50;99.90;;;;;;5094902;28;20195;-70
2022/12/05 08:36:48;;;;;;;57.73;28.73;;;3.60;99.90;;;;;;5092951;28;20309;-70
2022/12/05 08:39:16;;;;;;;52.50;26.50;;;3.50;99.90;;;;;;5094540;28;20642;-70
2022/12/05 08:41:43;;;;;;;47.03;25.23;;;3.50;99.90;;;;;;5093713;28;20206;-70
2022/12/05 08:44:14;;;;;;;49.77;27.07;;;3.50;99.90;;;;;;5093827;28;20226;-71
2022/12/05 08:46:42;;;;;;;51.50;26.80;;;3.50;99.90;;;;;;5093825;28;20192;-71
2022/12/05 08:49:09;;;;;;;47.70;25.53;;;3.50;99.90;;;;;;5094363;28;20221;-71
2022/12/05 08:51:35;;;;;;;47.20;25.73;;;3.70;99.90;;;;;;5092838;28;20180;-72
2022/12/05 08:54:04;;;;;;;42.50;24.17;;;3.70;99.90;;;;;;5094497;28;20592;-69
2022/12/05 08:56:31;;;;;;;50.90;26.87;;;3.80;99.90;;;;;;5094030;28;20194;-70
2022/12/05 08:58:58;;;;;;;49.57;25.87;;;3.80;99.90;;;;;;5093931;28;20639;-70
2022/12/05 09:01:29;;;;;;;49.83;26.70;;;3.80;99.90;;;;;;5093844;28;20190;-70
2022/12/05 09:03:54;;;;;;;49.83;26.33;;;4.00;99.90;;;;;;5093711;28;20199;-72
2022/12/05 09:06:23;;;;;;;49.53;26.50;;;4.10;99.90;;;;;;5093657;28;20168;-70
2022/12/05 09:08:53;;;;;;;45.93;25.33;;;4.30;99.90;;;;;;5094782;28;20168;-71
2022/12/05 09:11:22;;;;;;;47.17;26.40;;;4.40;99.90;;;;;;5091871;28;20759;-71
2022/12/05 09:13:50;;;;;;;44.33;24.03;;;4.40;99.90;;;;;;5093396;28;20179;-71
2022/12/05 09:16:20;;;;;;;44.03;24.87;;;4.50;99.90;;;;;;5062719;28;20227;-70
2022/12/05 09:18:46;;;;;;;41.23;23.87;;;4.50;99.90;;;;;;5092183;28;20631;-72
2022/12/05 09:21:14;;;;;;;37.60;22.87;;;4.70;99.90;;;;;;5093738;28;20172;-72
2022/12/05 09:23:40;;;;;;;43.43;25.03;;;4.60;99.90;;;;;;5090935;28;20216;-71
2022/12/05 09:26:10;;;;;;;38.57;23.30;;;4.60;99.90;;;;;;5093070;28;20178;-71
2022/12/05 09:28:37;;;;;;;38.37;23.00;;;4.70;99.90;;;;;;5093233;28;20187;-73
2022/12/05 09:31:06;;;;;;;36.90;21.67;;;4.80;99.90;;;;;;5094057;28;20179;-72
2022/12/05 09:33:34;;;;;;;35.30;22.60;;;4.90;99.90;;;;;;5090735;28;20183;-72
2022/12/05 09:36:04;;;;;;;38.30;22.70;;;5.00;99.90;;;;;;5093099;28;20224;-72
2022/12/05 09:38:30;;;;;;;37.83;22.77;;;5.00;99.90;;;;;;5093581;28;20182;-72
2022/12/05 09:44:37;;;;;;;34.83;21.77;;;5.10;99.90;;;;;;5093112;28;20246;-71
2022/12/05 09:47:28;;;;;;;35.60;21.20;;;5.10;99.90;;;;;;5092249;28;20254;-72
2022/12/05 09:49:58;;;;;;;40.90;22.57;;;5.00;99.90;;;;;;5074855;28;20175;-73
2022/12/05 09:52:38;;;;;;;38.77;21.10;;;5.00;99.90;;;;;;5093251;28;20168;-74
2022/12/05 09:55:14;;;;;;;31.53;21.37;;;5.00;99.90;;;;;;5093043;28;20171;-73
2022/12/05 09:57:50;;;;;;;30.57;19.67;;;5.10;99.90;;;;;;5075058;28;20701;-72
2022/12/05 10:00:16;;;;;;;28.03;18.83;;;5.20;99.90;;;;;;5092144;28;20171;-71
2022/12/05 10:02:58;;;;;;;34.33;19.90;;;5.20;99.90;;;;;;5093106;28;20204;-72
2022/12/05 10:05:31;;;;;;;31.43;18.67;;;5.10;99.90;;;;;;5092671;28;20213;-73
2022/12/05 10:08:04;;;;;;;34.10;19.77;;;5.00;99.90;;;;;;5092842;28;20174;-72
2022/12/05 10:10:40;;;;;;;35.27;20.50;;;4.70;99.90;;;;;;5092802;28;20217;-72
2022/12/05 10:13:24;;;;;;;33.60;20.23;;;4.80;99.90;;;;;;5089992;28;20559;-72
2022/12/05 10:15:56;;;;;;;25.73;17.93;;;4.80;99.90;;;;;;5093026;28;20168;-73
2022/12/05 10:18:43;;;;;;;26.87;17.80;;;4.70;99.90;;;;;;5075301;28;20175;-74
2022/12/05 10:21:14;;;;;;;27.03;17.90;;;4.60;99.90;;;;;;5092979;28;20180;-72
2022/12/05 10:23:58;;;;;;;26.93;17.83;;;4.70;99.90;;;;;;5092564;28;20786;-73
2022/12/05 10:26:37;;;;;;;26.10;18.23;;;4.80;99.90;;;;;;5091350;28;20255;-70
2022/12/05 10:29:10;;;;;;;28.70;17.57;;;4.70;99.90;;;;;;5093065;28;20168;-72
2022/12/05 10:31:38;;;;;;;30.97;18.20;;;4.60;99.90;;;;;;5093019;28;20628;-72
2022/12/05 10:34:34;;;;;;;30.23;20.77;;;4.70;99.90;;;;;;5093200;28;20211;-72
2022/12/05 10:37:13;;;;;;;28.17;18.40;;;4.80;99.90;;;;;;5074211;28;20262;-71
2022/12/05 10:39:39;;;;;;;30.00;19.40;;;4.80;99.90;;;;;;5092611;28;20168;-70
2022/12/05 10:42:08;;;;;;;23.27;15.77;;;5.00;99.90;;;;;;5091348;28;20224;-71
2022/12/05 10:44:34;;;;;;;22.20;15.10;;;4.60;99.90;;;;;;5092530;28;20536;-71
2022/12/05 10:47:00;;;;;;;24.27;16.17;;;4.50;99.90;;;;;;5092832;28;20277;-71
2022/12/05 10:49:27;;;;;;;27.83;18.50;;;4.60;99.90;;;;;;5091544;28;20199;-73
2022/12/05 10:51:53;;;;;;;23.30;15.80;;;4.60;99.90;;;;;;5074062;28;20179;-71
2022/12/05 10:54:29;;;;;;;23.60;16.07;;;4.70;99.90;;;;;;5092238;28;20643;-73
2022/12/05 10:56:54;;;;;;;26.73;17.60;;;4.80;99.90;;;;;;5092264;28;20217;-72
2022/12/05 10:59:25;;;;;;;29.27;18.13;;;4.90;99.90;;;;;;5092439;28;20606;-72
2022/12/05 11:01:54;;;;;;;26.20;17.20;;;5.10;99.90;;;;;;5092252;28;20176;-72
2022/12/05 11:04:42;;;;;;;28.80;18.37;;;5.20;99.90;;;;;;5091817;28;20191;-70
2022/12/05 11:07:43;;;;;;;29.13;18.10;;;5.20;99.90;;;;;;5092794;28;20168;-71
2022/12/05 11:10:36;;;;;;;22.63;15.53;;;5.20;99.90;;;;;;5037929;28;20211;-72
2022/12/05 11:13:14;;;;;;;23.53;16.43;;;5.10;99.90;;;;;;5073904;28;20654;-72
2022/12/05 11:15:45;;;;;;;25.83;17.93;;;5.20;99.90;;;;;;5092450;28;20168;-72
2022/12/05 11:18:25;;;;;;;23.97;16.97;;;5.30;99.90;;;;;;5092447;28;20164;-72
2022/12/05 11:20:51;;;;;;;22.10;15.83;;;5.40;99.90;;;;;;5092118;28;20207;-72
2022/12/05 11:23:38;;;;;;;24.00;16.17;;;5.30;99.90;;;;;;5092107;28;20231;-72
2022/12/05 11:26:13;;;;;;;22.97;16.53;;;5.30;99.90;;;;;;5091988;28;20179;-72
2022/12/05 11:28:39;;;;;;;22.77;16.77;;;5.30;99.90;;;;;;5092092;28;20270;-72
2022/12/05 11:31:11;;;;;;;20.83;15.77;;;5.50;99.90;;;;;;5092402;28;20247;-72
2022/12/05 11:33:37;;;;;;;28.97;18.87;;;5.40;99.90;;;;;;5092404;28;20508;-72
2022/12/05 11:36:09;;;;;;;22.10;15.77;;;5.40;99.90;;;;;;5091953;28;20523;-72
2022/12/05 11:38:35;;;;;;;19.03;13.87;;;5.30;99.90;;;;;;5091868;28;20251;-72
2022/12/05 11:41:59;;;;;;;19.50;14.80;;;5.00;99.90;;;;;;5091706;28;20682;-72
2022/12/05 11:44:46;;;;;;;21.27;14.60;;;5.10;99.90;;;;;;4990665;28;20211;-72
2022/12/05 11:47:17;;;;;;;21.53;15.00;;;5.10;99.90;;;;;;5091907;28;20244;-73
2022/12/05 11:50:02;;;;;;;22.50;15.63;;;5.20;99.90;;;;;;5091723;28;20687;-72
2022/12/05 11:52:58;;;;;;;23.13;16.70;;;5.30;99.90;;;;;;5091120;28;20678;-72
2022/12/05 11:55:28;;;;;;;26.03;17.80;;;5.40;99.90;;;;;;5090977;28;20168;-72
2022/12/05 11:58:12;;;;;;;23.50;16.63;;;5.60;99.90;;;;;;5092090;28;20218;-72
2022/12/05 12:01:17;;;;;;;23.93;16.73;;;5.60;99.90;;;;;;5091986;28;20172;-73
2022/12/05 12:04:16;;;;;;;22.07;16.07;;;5.70;99.90;;;;;;5089073;28;20248;-73
2022/12/05 12:07:04;;;;;;;23.87;16.60;;;5.70;99.90;;;;;;5091929;28;20176;-72
2022/12/05 12:10:05;;;;;;;26.13;17.87;;;5.80;99.90;;;;;;5091617;28;20207;-71
2022/12/05 12:12:45;;;;;;;21.27;15.50;;;5.90;99.90;;;;;;5012664;28;20244;-73
2022/12/05 12:15:39;;;;;;;20.47;15.50;;;5.70;99.90;;;;;;5012579;28;20186;-72
2022/12/05 12:18:46;;;;;;;20.87;15.80;;;5.60;99.90;;;;;;5012949;28;20205;-72
2022/12/05 12:21:32;;;;;;;22.93;16.53;;;5.80;99.90;;;;;;5012929;28;20179;-73
2022/12/05 12:24:33;;;;;;;22.77;15.53;;;5.90;99.90;;;;;;5012848;28;20260;-72
2022/12/05 12:27:51;;;;;;;22.53;15.57;;;5.70;99.90;;;;;;5009326;28;20179;-70
2022/12/05 12:30:28;;;;;;;21.30;15.03;;;5.90;99.90;;;;;;4993446;28;20172;-71
2022/12/05 12:33:22;;;;;;;22.43;15.90;;;5.80;99.90;;;;;;4993132;28;20306;-73
2022/12/05 12:36:34;;;;;;;25.13;17.10;;;5.70;99.90;;;;;;5006912;28;20240;-72
2022/12/05 12:39:30;;;;;;;22.23;16.60;;;5.70;99.90;;;;;;4992790;28;20642;-72
2022/12/05 12:42:31;;;;;;;24.13;17.13;;;5.70;99.90;;;;;;4991688;28;20184;-72
2022/12/05 12:45:19;;;;;;;21.23;16.60;;;5.70;99.90;;;;;;4984445;28;20214;-72
2022/12/05 12:48:09;;;;;;;25.03;17.13;;;5.60;99.90;;;;;;5069898;28;20180;-71
2022/12/05 12:50:41;;;;;;;20.90;16.13;;;5.60;99.90;;;;;;5071541;28;20184;-72
2022/12/05 12:53:28;;;;;;;22.43;15.87;;;5.60;99.90;;;;;;5071611;28;20168;-72
2022/12/05 12:56:00;;;;;;;23.73;17.57;;;5.60;99.90;;;;;;5071642;28;20172;-72
2022/12/05 12:58:41;;;;;;;25.03;17.80;;;5.60;99.90;;;;;;5071919;28;20176;-72
2022/12/05 13:01:14;;;;;;;24.10;16.83;;;5.70;99.90;;;;;;5072263;28;20165;-72
2022/12/05 13:03:52;;;;;;;22.50;17.27;;;5.80;99.90;;;;;;5071383;28;20208;-72
2022/12/05 13:06:22;;;;;;;22.70;17.03;;;6.00;99.90;;;;;;5071497;28;20267;-73
2022/12/05 13:08:59;;;;;;;23.10;15.97;;;6.10;99.90;;;;;;5074188;28;20250;-71
2022/12/05 13:11:28;;;;;;;18.43;14.50;;;6.10;99.90;;;;;;5093674;28;20310;-72
2022/12/05 13:13:57;;;;;;;20.77;15.73;;;6.00;99.90;;;;;;5094593;28;20172;-72